Hepler, Kansas
Current Conditions -  °F | °C
As of 12:15 PM on Thursday 23 Oct 2014 (Local Time) from KPTS Reporting Station
Overcast Overcast  
Wind Chill: 61°   Ceiling: 4100
Heat Index: 61°   Visibility: 10mi
Dew Point: 61°   Wind: 10mph
Humidity: 100%   Direction: 190°S
Pressure: 30.15"   Gusts: NA
Location:  37.66°N, 94.97°W
Report Text: KPTS 231715Z AUTO 19009KT 10SM OVC041 16/16 A3015 RMK AO2 T01610162
Loading
Personal Weather Stations






























Interactive Weather Map
Tropical Storm Tracking
New forecast layout! Learn more

10-Day Weather Forecast

Advertisements
Track Severe Weather on mobile